Greenspond, Canada
Current Conditions -  °F | °C
As of 11:00 AM on Thursday 30 Oct 2014 (Local Time) from CYQX Reporting Station
Overcast Overcast  
Wind Chill: 57°   Ceiling: 800
Heat Index: 57°   Visibility: 15mi
Dew Point: 55°   Wind: 14mph
Humidity: 94%   Direction: 180°S
Pressure: 29.61"   Gusts: NA
Location:  49.05°N, 53.58°W
Report Text: CYQX 301300Z 18012KT 15SM OVC008 14/13 A2961 RMK SF8 SLP029 DENSITY ALT 800FT
Loading
Personal Weather Stations






























Interactive Weather Map New forecast layout! Learn more

10-Day Weather Forecast

Advertisements
Track Severe Weather on mobile